Rochester, NY

4:49 PM EDT on July 25, 2017 (GMT -0400)
South Wedge | | Change Station
Active Advisory: Flood Warning

Elev 525 ft 43.14 °N, 77.61 °W | Updated 4 seconds ago

Overcast
Overcast
68.4 °F
Feels Like 68.4 °F
N
0.0
Wind Variable Wind from ESE

Today
High -- | Low -- °F
--% Chance of Precip.
Yesterday
High -- | Low -- °F
Precip. -- in
Pressure 30.22 in
Visibility 10.0 miles
Clouds Few 2400 ft
Overcast 3500 ft
Dew Point 57 °F
Humidity 69%
Rainfall 0.23 in
Snow Depth Not available.
5:53 AM 8:39 PM
Waxing Crescent, 8% visible
METAR KROC 251954Z 02006KT 10SM FEW024 OVC035 19/13 A3021 RMK AO2 SLP233 T01890133
Pressure 30.22 in
Visibility 10.0 miles
Clouds Few 2400 ft
Overcast 3500 ft
Dew Point 57 °F
Humidity 69%
Rainfall 0.23 in
Snow Depth Not available.
5:53 AM 8:39 PM
Waxing Crescent, 8% visible
METAR KROC 251954Z 02006KT 10SM FEW024 OVC035 19/13 A3021 RMK AO2 SLP233 T01890133

Get Your Daily Forecast Email!

Thanks for signing up!

Be on the lookout for a verification email in your inbox.

You'll start receiving severe weather alerts in your inbox..

×

10-Day Weather Forecast

Almanac

Astronomy

Jul. 25, 2017 Rise Set
Actual Time
Civil Twilight
Nautical Twilight
Astronomical Twilight
Moon
Length of Visible Light
Length of Day
Tomorrow will be .
, % of the Moon is Illuminated

Today's Extremes

State Highs State Lows

Community

WunderPhotos

Category 6

Welcome to Category 6. This is the collective home for Weather Underground's featured writeups by Dr. Jeff Masters (right), Bob Henson (left), Chris Burt, and other regular contributors.

Nearby

Air Quality

  Air Quality AQ Index Pollutant
Not available.

Snow Depth

Station Depth Elevation

Earthquake Activity

City Distance Mag. Time & Date
Minimum magnitude displayed is 2.5.

Coastal Water Temperatures

Place Temperature

Stations

Nearby Weather Stations

Station Location Temp. Windchill Dew Point Humidity Wind Precip. Elev Updated Type
                   

Watches & Warnings

Flood Warning
Issued: . , – National Weather Service

...Beach Hazards Statement In Effect Until 5 Pm Edt This Afternoon...


... LAKESHORE FLOOD WARNING IN EFFECT UNTIL 5 PM EDT THIS AFTERNOON...
... BEACH HAZARDS STATEMENT IN EFFECT UNTIL 5 PM EDT THIS AFTERNOON...

... LAKESHORE FLOOD WARNING IN EFFECT UNTIL 5 PM EDT THIS AFTERNOON...
... BEACH HAZARDS STATEMENT IN EFFECT THROUGH THIS AFTERNOON...

... LAKESHORE FLOOD WARNING IN EFFECT UNTIL 5 PM EDT THIS AFTERNOON...
... BEACH HAZARDS STATEMENT IN EFFECT THROUGH THIS AFTERNOON...